Time;durP1;ratioP1;P1;durP2;ratioP2;P2;SDS_P1;SDS_P2;PMS_P1;PMS_P2;Temp;Humidity;BMP_temperature;BMP_pressure;BME280_temperature;BME280_humidity;BME280_pressure;Samples;Min_cycle;Max_cycle;Signal;HPM_P1;HPM_P2
2022/10/05 00:00:11;;;;;;;8.95;8.05;;;;;;;;;;4998016;28;20440;-80
2022/10/05 00:02:37;;;;;;;10.32;8.38;;;;;;;;;;5013568;28;20419;-80
2022/10/05 00:05:09;;;;;;;9.60;8.10;;;;;;;;;;4995174;28;20425;-80
2022/10/05 00:07:35;;;;;;;9.80;8.05;;;;;;;;;;5006887;28;20419;-77
2022/10/05 00:10:08;;;;;;;9.88;8.05;;;;;;;;;;5014474;28;20418;-77
2022/10/05 00:12:34;;;;;;;9.43;8.00;;;;;;;;;;5014006;28;20427;-77
2022/10/05 00:15:01;;;;;;;9.98;8.18;;;;;;;;;;4997566;28;20411;-77
2022/10/05 00:17:29;;;;;;;9.70;7.90;;;;;;;;;;5022745;28;20423;-77
2022/10/05 00:19:55;;;;;;;10.55;8.07;;;;;;;;;;5013793;28;20439;-77
2022/10/05 00:22:29;;;;;;;9.98;8.05;;;;;;;;;;5027279;28;20464;-77
2022/10/05 00:24:57;;;;;;;9.45;7.93;;;;;;;;;;5029450;28;20445;-80
2022/10/05 00:27:30;;;;;;;10.07;7.88;;;;;;;;;;5019383;28;20421;-80
2022/10/05 00:29:58;;;;;;;8.70;7.80;;;;;;;;;;5012849;28;20443;-81
2022/10/05 00:32:24;;;;;;;10.55;8.25;;;;;;;;;;5011048;28;20423;-82
2022/10/05 00:34:50;;;;;;;9.40;7.93;;;;;;;;;;4997132;28;20522;-82
2022/10/05 00:37:16;;;;;;;10.35;8.10;;;;;;;;;;5007895;28;20440;-82
2022/10/05 00:39:45;;;;;;;11.02;7.90;;;;;;;;;;4995074;28;20427;-79
2022/10/05 00:42:17;;;;;;;9.90;7.90;;;;;;;;;;4991373;28;20481;-79
2022/10/05 00:44:50;;;;;;;9.82;8.10;;;;;;;;;;5028429;28;20407;-78
2022/10/05 00:47:28;;;;;;;9.50;8.40;;;;;;;;;;5008690;28;20422;-77
2022/10/05 00:49:54;;;;;;;9.82;8.48;;;;;;;;;;5007910;28;20425;-80
2022/10/05 00:52:21;;;;;;;10.75;8.45;;;;;;;;;;5014205;28;20461;-78
2022/10/05 00:54:59;;;;;;;12.82;8.75;;;;;;;;;;5013196;28;20415;-78
2022/10/05 00:57:28;;;;;;;10.80;8.70;;;;;;;;;;5005915;28;20434;-79
2022/10/05 01:00:03;;;;;;;9.68;8.20;;;;;;;;;;5010348;28;20423;-79
2022/10/05 01:02:29;;;;;;;11.65;8.30;;;;;;;;;;5010523;28;20529;-79
2022/10/05 01:04:58;;;;;;;10.38;8.77;;;;;;;;;;5009522;28;20423;-80
2022/10/05 01:07:39;;;;;;;10.20;9.07;;;;;;;;;;5007358;28;20417;-79
2022/10/05 01:10:14;;;;;;;11.25;8.75;;;;;;;;;;5010247;28;20419;-80
2022/10/05 01:12:49;;;;;;;11.40;9.25;;;;;;;;;;5010639;28;20423;-78
2022/10/05 01:15:20;;;;;;;10.30;8.93;;;;;;;;;;5009770;28;20453;-79
2022/10/05 01:17:54;;;;;;;12.32;8.90;;;;;;;;;;5011752;28;20415;-78
2022/10/05 01:20:30;;;;;;;9.70;8.70;;;;;;;;;;5013068;28;20437;-79
2022/10/05 01:23:05;;;;;;;10.00;9.00;;;;;;;;;;5013310;28;20422;-78
2022/10/05 01:25:34;;;;;;;11.15;9.00;;;;;;;;;;5011493;28;20415;-78
2022/10/05 01:28:02;;;;;;;10.33;8.70;;;;;;;;;;5018540;28;20415;-79
2022/10/05 01:30:32;;;;;;;10.23;9.20;;;;;;;;;;5012593;28;20439;-81
2022/10/05 01:33:07;;;;;;;11.50;9.63;;;;;;;;;;5013925;28;20443;-81
2022/10/05 01:35:40;;;;;;;12.07;9.07;;;;;;;;;;4999126;28;20503;-82
2022/10/05 01:38:25;;;;;;;11.27;9.20;;;;;;;;;;5008398;28;20481;-82
2022/10/05 01:40:56;;;;;;;11.65;9.43;;;;;;;;;;5013790;28;20512;-82
2022/10/05 01:43:40;;;;;;;11.38;9.90;;;;;;;;;;5012938;28;20415;-82
2022/10/05 01:46:25;;;;;;;11.18;9.32;;;;;;;;;;5012311;28;20423;-82
2022/10/05 01:49:07;;;;;;;11.45;9.73;;;;;;;;;;5016264;28;20468;-89
2022/10/05 01:51:40;;;;;;;12.00;9.30;;;;;;;;;;5013797;28;20419;-88
2022/10/05 01:54:15;;;;;;;11.10;9.70;;;;;;;;;;5012612;28;20454;-89
2022/10/05 01:56:57;;;;;;;10.32;9.20;;;;;;;;;;5013095;28;20435;-89
2022/10/05 01:59:22;;;;;;;11.40;9.73;;;;;;;;;;5012883;28;20461;-89
2022/10/05 02:01:48;;;;;;;11.07;9.93;;;;;;;;;;5012575;28;20459;-89
2022/10/05 02:04:17;;;;;;;11.13;9.68;;;;;;;;;;5024430;28;20407;-81
2022/10/05 02:06:46;;;;;;;13.23;9.80;;;;;;;;;;5012498;28;20427;-81
2022/10/05 02:09:17;;;;;;;12.50;10.00;;;;;;;;;;5026496;28;20413;-81
2022/10/05 02:11:45;;;;;;;11.10;9.97;;;;;;;;;;5012884;28;20517;-81
2022/10/05 02:14:12;;;;;;;12.43;10.37;;;;;;;;;;5012418;28;20423;-81
2022/10/05 02:16:42;;;;;;;13.10;10.00;;;;;;;;;;5020741;28;20204;-81
2022/10/05 02:19:20;;;;;;;11.90;10.43;;;;;;;;;;5014634;28;20208;-82
2022/10/05 02:21:48;;;;;;;11.90;10.17;;;;;;;;;;5013409;28;20243;-81
2022/10/05 02:24:21;;;;;;;12.17;10.73;;;;;;;;;;5012370;28;20196;-81
2022/10/05 02:26:48;;;;;;;12.13;10.03;;;;;;;;;;5012787;28;20215;-81
2022/10/05 02:29:17;;;;;;;12.37;10.67;;;;;;;;;;5013132;28;20235;-81
2022/10/05 02:31:46;;;;;;;12.40;11.10;;;;;;;;;;5013076;28;20189;-81
2022/10/05 02:34:24;;;;;;;12.07;10.43;;;;;;;;;;5012855;28;20235;-81
2022/10/05 02:37:16;;;;;;;13.90;10.33;;;;;;;;;;5014538;28;20184;-79
2022/10/05 02:39:45;;;;;;;13.70;10.90;;;;;;;;;;5006917;28;20213;-79
2022/10/05 02:42:14;;;;;;;12.57;11.17;;;;;;;;;;5021945;28;20185;-79
2022/10/05 02:45:00;;;;;;;13.97;10.43;;;;;;;;;;5014250;28;20176;-79
2022/10/05 02:47:34;;;;;;;13.23;10.90;;;;;;;;;;5012946;28;20177;-80
2022/10/05 02:50:23;;;;;;;12.70;10.40;;;;;;;;;;5016725;28;20183;-79
2022/10/05 02:52:55;;;;;;;12.70;11.37;;;;;;;;;;4997574;28;20209;-81
2022/10/05 02:55:30;;;;;;;13.87;10.70;;;;;;;;;;5016633;28;20189;-82
2022/10/05 02:57:56;;;;;;;13.87;11.17;;;;;;;;;;5016599;28;20185;-81
2022/10/05 03:00:23;;;;;;;15.03;11.80;;;;;;;;;;5016560;28;20271;-82
2022/10/05 03:03:05;;;;;;;15.53;11.30;;;;;;;;;;5017297;28;20248;-82
2022/10/05 03:05:41;;;;;;;16.07;11.43;;;;;;;;;;5017512;28;20184;-82
2022/10/05 03:08:15;;;;;;;14.27;11.47;;;;;;;;;;5016556;28;20307;-82
2022/10/05 03:10:44;;;;;;;13.13;10.87;;;;;;;;;;5016463;28;20248;-82
2022/10/05 03:13:23;;;;;;;14.55;13.05;;;;;;;;;;5015782;28;20451;-82
2022/10/05 03:15:55;;;;;;;15.37;12.00;;;;;;;;;;5004555;28;20190;-82
2022/10/05 03:18:40;;;;;;;15.30;11.87;;;;;;;;;;5045357;28;20200;-82
2022/10/05 03:21:06;;;;;;;15.48;12.70;;;;;;;;;;5021826;28;20526;-79
2022/10/05 03:23:32;;;;;;;15.00;13.40;;;;;;;;;;5014869;28;20514;-82
2022/10/05 03:26:14;;;;;;;14.48;12.90;;;;;;;;;;5015671;28;20434;-79
2022/10/05 03:28:40;;;;;;;15.93;13.15;;;;;;;;;;5016303;28;20437;-82
2022/10/05 03:31:14;;;;;;;15.73;12.80;;;;;;;;;;5034969;28;20228;-81
2022/10/05 03:33:43;;;;;;;13.52;11.13;;;;;;;;;;5022523;28;20374;-82
2022/10/05 03:36:28;;;;;;;15.60;11.63;;;;;;;;;;5016881;28;20189;-82
2022/10/05 03:38:59;;;;;;;15.80;11.50;;;;;;;;;;5016119;28;20196;-81
2022/10/05 03:41:28;;;;;;;15.95;13.25;;;;;;;;;;5002214;28;20442;-81
2022/10/05 03:44:04;;;;;;;15.93;12.97;;;;;;;;;;5030933;23;20239;-81
2022/10/05 03:46:30;;;;;;;14.00;12.23;;;;;;;;;;5047344;28;20177;-81
2022/10/05 03:49:14;;;;;;;15.07;12.13;;;;;;;;;;5035430;28;20177;-81
2022/10/05 03:51:50;;;;;;;15.00;11.50;;;;;;;;;;5034681;28;20227;-82
2022/10/05 03:54:22;;;;;;;15.53;12.30;;;;;;;;;;5034219;28;20283;-82
2022/10/05 03:56:51;;;;;;;13.93;11.50;;;;;;;;;;5026111;28;20271;-82
2022/10/05 03:59:35;;;;;;;14.43;11.30;;;;;;;;;;5034145;28;20209;-82
2022/10/05 04:02:03;;;;;;;14.67;11.43;;;;;;;;;;5026922;28;20185;-82
2022/10/05 04:04:37;;;;;;;14.73;11.43;;;;;;;;;;5032578;28;20180;-82
2022/10/05 04:07:03;;;;;;;15.50;11.27;;;;;;;;;;5035093;28;20183;-82
2022/10/05 04:09:43;;;;;;;14.13;11.37;;;;;;;;;;5017380;28;20189;-81
2022/10/05 04:12:19;;;;;;;14.17;11.27;;;;;;;;;;5030606;28;20207;-82
2022/10/05 04:14:50;;;;;;;12.97;10.73;;;;;;;;;;5034025;28;20195;-82
2022/10/05 04:17:17;;;;;;;11.77;10.53;;;;;;;;;;5045376;28;20187;-82
2022/10/05 04:19:47;;;;;;;12.50;10.97;;;;;;;;;;5033660;28;20278;-82
2022/10/05 04:22:20;;;;;;;15.03;11.77;;;;;;;;;;5035890;28;20180;-82
2022/10/05 04:24:49;;;;;;;12.83;10.83;;;;;;;;;;5032570;28;20185;-82
2022/10/05 04:27:20;;;;;;;12.30;11.07;;;;;;;;;;5053160;28;20212;-82
2022/10/05 04:29:46;;;;;;;12.60;10.77;;;;;;;;;;5038665;28;20188;-82
2022/10/05 04:32:12;;;;;;;13.90;11.60;;;;;;;;;;5033544;28;20433;-82
2022/10/05 04:34:48;;;;;;;15.68;12.30;;;;;;;;;;5037714;28;20459;-79
2022/10/05 04:37:23;;;;;;;12.65;11.13;;;;;;;;;;5032726;28;20436;-79
2022/10/05 04:39:55;;;;;;;13.27;10.87;;;;;;;;;;5052954;28;20293;-80
2022/10/05 04:42:33;;;;;;;11.57;10.30;;;;;;;;;;5033687;28;20185;-79
2022/10/05 04:44:59;;;;;;;12.65;11.32;;;;;;;;;;5033784;28;20442;-79
2022/10/05 04:47:31;;;;;;;14.23;11.13;;;;;;;;;;5033088;28;20493;-79
2022/10/05 04:50:20;;;;;;;14.15;11.02;;;;;;;;;;5032808;28;20429;-81
2022/10/05 04:52:53;;;;;;;13.02;11.07;;;;;;;;;;5028866;28;20444;-81
2022/10/05 04:55:38;;;;;;;14.27;10.37;;;;;;;;;;5035858;28;20188;-81
2022/10/05 04:58:23;;;;;;;11.90;10.70;;;;;;;;;;5031581;28;20522;-82
2022/10/05 05:00:59;;;;;;;12.10;10.17;;;;;;;;;;5028997;28;20208;-82
2022/10/05 05:03:28;;;;;;;11.15;9.40;;;;;;;;;;5031087;28;20072;-81
2022/10/05 05:06:04;;;;;;;12.75;10.15;;;;;;;;;;5045553;28;20475;-82
2022/10/05 05:08:29;;;;;;;10.80;9.07;;;;;;;;;;5023489;28;20189;-82
2022/10/05 05:11:06;;;;;;;13.37;9.13;;;;;;;;;;5046771;28;20215;-82
2022/10/05 05:13:55;;;;;;;14.53;9.00;;;;;;;;;;5033644;28;20199;-82
2022/10/05 05:16:21;;;;;;;11.70;10.50;;;;;;;;;;5031673;28;20425;-82
2022/10/05 05:19:00;;;;;;;10.48;9.35;;;;;;;;;;5035104;28;20416;-82
2022/10/05 05:21:25;;;;;;;11.70;9.45;;;;;;;;;;5033610;28;20409;-82
2022/10/05 05:23:51;;;;;;;10.40;9.32;;;;;;;;;;5033834;28;20543;-90
2022/10/05 05:26:29;;;;;;;11.02;9.18;;;;;;;;;;5033382;28;20408;-89
2022/10/05 05:28:55;;;;;;;14.52;9.52;;;;;;;;;;5032637;28;20413;-90
2022/10/05 05:31:27;;;;;;;13.47;9.83;;;;;;;;;;5033036;28;20409;-90
2022/10/05 05:34:16;;;;;;;15.77;10.13;;;;;;;;;;5032968;28;20401;-91
2022/10/05 05:37:02;;;;;;;14.95;10.20;;;;;;;;;;5014331;28;20389;-90
2022/10/05 05:39:33;;;;;;;13.35;9.68;;;;;;;;;;5032450;28;20457;-89
2022/10/05 05:42:01;;;;;;;10.88;9.77;;;;;;;;;;5032542;28;20488;-89
2022/10/05 05:44:36;;;;;;;11.73;9.65;;;;;;;;;;5033471;28;20425;-82
2022/10/05 05:47:04;;;;;;;11.73;9.68;;;;;;;;;;5034048;28;20401;-82
2022/10/05 05:49:30;;;;;;;12.05;9.95;;;;;;;;;;5032445;28;20509;-82
2022/10/05 05:51:59;;;;;;;10.53;9.50;;;;;;;;;;5033142;28;20264;-89
2022/10/05 05:54:36;;;;;;;12.43;9.37;;;;;;;;;;5033393;28;20177;-90
2022/10/05 05:57:07;;;;;;;13.77;9.70;;;;;;;;;;5033151;28;20221;-80
2022/10/05 05:59:52;;;;;;;14.13;9.95;;;;;;;;;;5032004;28;20429;-79
2022/10/05 06:02:26;;;;;;;13.52;10.93;;;;;;;;;;5032688;28;20484;-79
2022/10/05 06:04:54;;;;;;;12.90;9.80;;;;;;;;;;5033482;28;20177;-79
2022/10/05 06:07:23;;;;;;;10.20;9.23;;;;;;;;;;5033551;28;20172;-79
2022/10/05 06:09:52;;;;;;;11.70;10.35;;;;;;;;;;5032935;28;20471;-80
2022/10/05 06:12:32;;;;;;;11.70;10.25;;;;;;;;;;5033536;28;20488;-79
2022/10/05 06:15:01;;;;;;;11.20;9.52;;;;;;;;;;5033538;28;20406;-79
2022/10/05 06:17:37;;;;;;;11.00;9.30;;;;;;;;;;5033343;28;20234;-79
2022/10/05 06:20:04;;;;;;;11.60;8.00;;;;;;;;;;5033088;28;20207;-79
2022/10/05 06:22:35;;;;;;;11.70;8.23;;;;;;;;;;5032934;28;20180;-79
2022/10/05 06:25:07;;;;;;;11.07;9.00;;;;;;;;;;5032396;28;20443;-79
2022/10/05 06:27:38;;;;;;;10.47;9.40;;;;;;;;;;5032189;28;20405;-79
2022/10/05 06:30:04;;;;;;;10.73;9.07;;;;;;;;;;5032133;28;20424;-82
2022/10/05 06:32:49;;;;;;;10.35;8.88;;;;;;;;;;5032351;28;20410;-82
2022/10/05 06:35:22;;;;;;;11.32;9.10;;;;;;;;;;5032262;28;20406;-82
2022/10/05 06:37:56;;;;;;;10.05;9.05;;;;;;;;;;5033159;28;20418;-82
2022/10/05 06:40:28;;;;;;;10.75;8.80;;;;;;;;;;5031977;28;20448;-82
2022/10/05 06:43:13;;;;;;;11.80;9.55;;;;;;;;;;5031802;28;20496;-82
2022/10/05 06:45:54;;;;;;;11.25;9.32;;;;;;;;;;5040598;28;20414;-82
2022/10/05 06:48:26;;;;;;;10.13;9.13;;;;;;;;;;5032525;28;20414;-79
2022/10/05 06:50:57;;;;;;;12.87;9.27;;;;;;;;;;5032088;28;20496;-80
2022/10/05 06:53:35;;;;;;;11.50;9.25;;;;;;;;;;5031870;28;20410;-79
2022/10/05 06:56:04;;;;;;;10.93;9.57;;;;;;;;;;5033420;28;20398;-79
2022/10/05 06:58:30;;;;;;;10.27;8.82;;;;;;;;;;5031615;28;20456;-79
2022/10/05 07:01:09;;;;;;;13.43;8.90;;;;;;;;;;5031748;28;20457;-79
2022/10/05 07:03:51;;;;;;;9.55;8.48;;;;;;;;;;5032256;28;20432;-82
2022/10/05 07:06:20;;;;;;;12.82;9.15;;;;;;;;;;5031586;28;20410;-82
2022/10/05 07:09:07;;;;;;;11.50;9.00;;;;;;;;;;5030953;28;20413;-82
2022/10/05 07:11:45;;;;;;;9.70;8.03;;;;;;;;;;5030072;28;20197;-82
2022/10/05 07:14:50;;;;;;;10.60;8.80;;;;;;;;;;5029279;28;20471;-82
2022/10/05 07:17:29;;;;;;;9.00;8.10;;;;;;;;;;4975911;28;20264;-82
2022/10/05 07:20:22;;;;;;;9.93;8.70;;;;;;;;;;4975718;28;20612;-89
2022/10/05 07:23:08;;;;;;;9.77;8.30;;;;;;;;;;4992732;28;20409;-89
2022/10/05 07:25:52;;;;;;;10.85;8.50;;;;;;;;;;5011679;28;20414;-87
2022/10/05 07:28:26;;;;;;;9.18;8.27;;;;;;;;;;5031516;28;20436;-79
2022/10/05 07:30:52;;;;;;;8.53;7.50;;;;;;;;;;5032249;28;20417;-82
2022/10/05 07:33:25;;;;;;;10.40;8.40;;;;;;;;;;5032082;28;20409;-82
2022/10/05 07:38:48;;;;;;;9.18;7.90;;;;;;;;;;5038438;28;20433;-89
2022/10/05 07:41:23;;;;;;;8.90;7.88;;;;;;;;;;5035505;28;20425;-89
2022/10/05 07:43:52;;;;;;;9.02;7.78;;;;;;;;;;5036677;28;20434;-89
2022/10/05 07:46:22;;;;;;;8.48;7.53;;;;;;;;;;5035119;28;20486;-89
2022/10/05 07:49:03;;;;;;;8.30;7.50;;;;;;;;;;5036599;28;20192;-89
2022/10/05 07:51:29;;;;;;;10.13;7.63;;;;;;;;;;5035389;28;20431;-89
2022/10/05 07:54:16;;;;;;;9.67;7.30;;;;;;;;;;5035693;28;20180;-82
2022/10/05 07:56:44;;;;;;;7.67;6.57;;;;;;;;;;5037103;28;20176;-82
2022/10/05 07:59:16;;;;;;;9.57;6.50;;;;;;;;;;5035642;28;20184;-82
2022/10/05 08:01:46;;;;;;;10.00;6.70;;;;;;;;;;5035714;28;20177;-82
2022/10/05 08:04:15;;;;;;;10.10;6.73;;;;;;;;;;5035765;28;20179;-82
2022/10/05 08:06:49;;;;;;;8.97;6.87;;;;;;;;;;5035357;28;20180;-82
2022/10/05 08:09:29;;;;;;;11.17;6.90;;;;;;;;;;5036496;28;20214;-82
2022/10/05 08:12:02;;;;;;;9.27;7.45;;;;;;;;;;5034328;28;20417;-79
2022/10/05 08:14:32;;;;;;;9.05;7.20;;;;;;;;;;5034756;28;20413;-79
2022/10/05 08:17:02;;;;;;;8.97;6.30;;;;;;;;;;5035595;28;20200;-82
2022/10/05 08:19:39;;;;;;;9.77;6.13;;;;;;;;;;5036618;28;20219;-90
2022/10/05 08:22:08;;;;;;;8.67;5.50;;;;;;;;;;5035361;28;20177;-83
2022/10/05 08:24:37;;;;;;;6.43;5.77;;;;;;;;;;5035865;28;20397;-82
2022/10/05 08:27:03;;;;;;;8.47;5.67;;;;;;;;;;5036159;28;20404;-82
2022/10/05 08:29:35;;;;;;;5.70;5.10;;;;;;;;;;5035394;28;20177;-82
2022/10/05 08:32:03;;;;;;;7.60;5.50;;;;;;;;;;5036260;28;20263;-82
2022/10/05 08:34:55;;;;;;;6.90;5.45;;;;;;;;;;5035076;28;20405;-89
2022/10/05 08:37:23;;;;;;;6.05;5.10;;;;;;;;;;5032695;28;20414;-90
2022/10/05 08:40:08;;;;;;;6.23;4.70;;;;;;;;;;5036249;28;20207;-90
2022/10/05 08:42:34;;;;;;;7.25;4.47;;;;;;;;;;5035137;28;20413;-90
2022/10/05 08:45:15;;;;;;;6.80;4.93;;;;;;;;;;5034944;28;20228;-89
2022/10/05 08:47:56;;;;;;;7.00;4.30;;;;;;;;;;5035074;28;20187;-89
2022/10/05 08:50:41;;;;;;;6.87;4.40;;;;;;;;;;5036103;28;20207;-89
2022/10/05 08:53:07;;;;;;;5.57;4.50;;;;;;;;;;5034925;28;20279;-89
2022/10/05 08:55:37;;;;;;;5.00;4.40;;;;;;;;;;5036010;28;20251;-89
2022/10/05 08:58:25;;;;;;;7.37;4.83;;;;;;;;;;5034222;28;20432;-89
2022/10/05 09:01:03;;;;;;;6.50;4.90;;;;;;;;;;5033815;28;20433;-79
2022/10/05 09:03:47;;;;;;;8.30;5.15;;;;;;;;;;5033425;28;20463;-80
2022/10/05 09:06:23;;;;;;;7.25;5.10;;;;;;;;;;5034781;28;20401;-79
2022/10/05 09:08:52;;;;;;;8.82;5.30;;;;;;;;;;5033726;28;20404;-80
2022/10/05 09:11:21;;;;;;;6.10;5.33;;;;;;;;;;5033501;28;20405;-79
2022/10/05 09:13:50;;;;;;;6.38;5.32;;;;;;;;;;5033315;28;20452;-79
2022/10/05 09:16:16;;;;;;;8.52;5.47;;;;;;;;;;5033421;28;20416;-82
2022/10/05 09:18:51;;;;;;;7.13;5.53;;;;;;;;;;5033722;28;20464;-82
2022/10/05 09:21:20;;;;;;;7.90;5.40;;;;;;;;;;5033202;28;20430;-82
2022/10/05 09:23:49;;;;;;;7.95;5.47;;;;;;;;;;5033506;28;20402;-82
2022/10/05 09:26:33;;;;;;;8.93;5.53;;;;;;;;;;5033096;28;20434;-82
2022/10/05 09:29:18;;;;;;;7.72;5.60;;;;;;;;;;5032933;28;20508;-82
2022/10/05 09:31:53;;;;;;;6.53;5.40;;;;;;;;;;5033186;28;20409;-80
2022/10/05 09:34:38;;;;;;;5.72;5.22;;;;;;;;;;5033237;28;20398;-79
2022/10/05 09:37:07;;;;;;;8.43;5.45;;;;;;;;;;5033048;28;20459;-80
2022/10/05 09:39:41;;;;;;;7.63;5.40;;;;;;;;;;5032768;28;20433;-82
2022/10/05 09:42:26;;;;;;;8.07;5.28;;;;;;;;;;5033395;28;20526;-82
2022/10/05 09:44:58;;;;;;;7.50;5.63;;;;;;;;;;5032876;28;20446;-82
2022/10/05 09:47:36;;;;;;;7.72;5.32;;;;;;;;;;5032907;28;20424;-82
2022/10/05 09:50:09;;;;;;;7.90;5.32;;;;;;;;;;5032756;28;20406;-82
2022/10/05 09:52:58;;;;;;;11.10;5.40;;;;;;;;;;5033295;28;20413;-82
2022/10/05 09:55:31;;;;;;;5.63;5.05;;;;;;;;;;5032509;28;20421;-82
2022/10/05 09:58:15;;;;;;;6.68;4.80;;;;;;;;;;5031662;28;20413;-82
2022/10/05 10:00:45;;;;;;;8.98;5.20;;;;;;;;;;5032568;28;20430;-82
2022/10/05 10:03:17;;;;;;;8.85;4.78;;;;;;;;;;5032290;28;20476;-82
2022/10/05 10:05:46;;;;;;;8.25;4.80;;;;;;;;;;5032852;28;20401;-82
2022/10/05 10:08:15;;;;;;;8.23;4.70;;;;;;;;;;5033573;28;20506;-82
2022/10/05 10:10:42;;;;;;;7.35;4.72;;;;;;;;;;5032276;28;20452;-82
2022/10/05 10:13:16;;;;;;;8.13;4.70;;;;;;;;;;5032778;28;20424;-82
2022/10/05 10:16:01;;;;;;;7.80;4.78;;;;;;;;;;5032126;28;20406;-82
2022/10/05 10:18:59;;;;;;;6.53;4.03;;;;;;;;;;5033355;28;20401;-82
2022/10/05 10:21:38;;;;;;;7.27;4.60;;;;;;;;;;5021439;28;20444;-82
2022/10/05 10:24:10;;;;;;;6.68;4.55;;;;;;;;;;5033351;28;20398;-82
2022/10/05 10:26:39;;;;;;;8.18;4.20;;;;;;;;;;5033587;28;20492;-82
2022/10/05 10:29:20;;;;;;;6.78;4.30;;;;;;;;;;5032081;28;20456;-82
2022/10/05 10:31:46;;;;;;;8.57;4.30;;;;;;;;;;5032467;28;20418;-82
2022/10/05 10:34:21;;;;;;;5.68;3.92;;;;;;;;;;5033151;28;20417;-82
2022/10/05 10:36:49;;;;;;;7.53;3.70;;;;;;;;;;5032339;28;20410;-82
2022/10/05 10:39:33;;;;;;;7.53;4.13;;;;;;;;;;5033279;28;20405;-82
2022/10/05 10:42:18;;;;;;;5.72;3.67;;;;;;;;;;5032215;28;20448;-89
2022/10/05 10:44:54;;;;;;;7.07;3.88;;;;;;;;;;5038424;23;20466;-82
2022/10/05 10:47:39;;;;;;;6.32;4.10;;;;;;;;;;5031636;28;20429;-82
2022/10/05 10:50:05;;;;;;;5.87;3.83;;;;;;;;;;5031567;28;20413;-82
2022/10/05 10:52:52;;;;;;;7.60;4.28;;;;;;;;;;5032054;28;20422;-82
2022/10/05 10:55:27;;;;;;;6.40;3.83;;;;;;;;;;5032611;28;20410;-82
2022/10/05 10:58:12;;;;;;;4.07;3.67;;;;;;;;;;5033049;28;20270;-79
2022/10/05 11:00:53;;;;;;;5.07;3.90;;;;;;;;;;5032885;28;20429;-80
2022/10/05 11:03:34;;;;;;;7.57;4.28;;;;;;;;;;5032756;28;20414;-79
2022/10/05 11:06:19;;;;;;;5.97;4.00;;;;;;;;;;5032623;28;20416;-80
2022/10/05 11:08:45;;;;;;;6.50;3.90;;;;;;;;;;5032713;28;20428;-79
2022/10/05 11:11:11;;;;;;;5.20;3.80;;;;;;;;;;5036326;28;20208;-79
2022/10/05 11:13:43;;;;;;;4.97;3.60;;;;;;;;;;5035815;28;20503;-82
2022/10/05 11:16:12;;;;;;;5.37;3.83;;;;;;;;;;5037130;28;20924;-82
2022/10/05 11:18:44;;;;;;;6.18;3.85;;;;;;;;;;5038328;28;20449;-82
2022/10/05 11:21:10;;;;;;;4.30;3.58;;;;;;;;;;5035592;28;20432;-82
2022/10/05 11:23:46;;;;;;;6.18;3.78;;;;;;;;;;5035080;28;20405;-82
2022/10/05 11:26:27;;;;;;;8.43;3.80;;;;;;;;;;5034750;28;20496;-82
2022/10/05 11:29:02;;;;;;;4.68;3.50;;;;;;;;;;5036006;28;20413;-82
2022/10/05 11:31:47;;;;;;;5.18;3.47;;;;;;;;;;5035654;28;20552;-90
2022/10/05 11:34:26;;;;;;;5.47;3.13;;;;;;;;;;5036632;28;20429;-90
2022/10/05 11:37:02;;;;;;;6.82;3.40;;;;;;;;;;5035628;28;20445;-90
2022/10/05 11:39:29;;;;;;;4.43;3.65;;;;;;;;;;5035766;28;20413;-90
2022/10/05 11:42:01;;;;;;;4.27;3.20;;;;;;;;;;5036211;28;20553;-90
2022/10/05 11:44:30;;;;;;;5.22;3.40;;;;;;;;;;5036110;28;20425;-90
2022/10/05 11:46:57;;;;;;;5.90;3.40;;;;;;;;;;5034911;28;20433;-83
2022/10/05 11:49:32;;;;;;;5.82;3.40;;;;;;;;;;5035569;28;20433;-83
2022/10/05 11:52:02;;;;;;;5.93;3.17;;;;;;;;;;5034548;28;20410;-82
2022/10/05 11:54:28;;;;;;;7.22;3.25;;;;;;;;;;5034486;28;20424;-82
2022/10/05 11:57:16;;;;;;;6.93;3.15;;;;;;;;;;5034458;28;20485;-83
2022/10/05 11:59:53;;;;;;;6.68;3.30;;;;;;;;;;5034648;28;20456;-83
2022/10/05 12:02:37;;;;;;;5.53;3.00;;;;;;;;;;5034107;28;20417;-83
2022/10/05 12:05:03;;;;;;;5.40;3.00;;;;;;;;;;5034526;28;20397;-82
2022/10/05 12:07:48;;;;;;;5.03;2.92;;;;;;;;;;5034309;28;20463;-83
2022/10/05 12:10:37;;;;;;;4.28;2.70;;;;;;;;;;5034349;28;20417;-83
2022/10/05 12:13:07;;;;;;;7.82;3.00;;;;;;;;;;5015278;28;20422;-82
2022/10/05 12:15:36;;;;;;;6.20;2.87;;;;;;;;;;5035837;28;20405;-83
2022/10/05 12:18:12;;;;;;;4.93;2.78;;;;;;;;;;5034262;28;20421;-83
2022/10/05 12:20:44;;;;;;;4.77;3.10;;;;;;;;;;5033236;28;20479;-82
2022/10/05 12:23:29;;;;;;;6.15;2.80;;;;;;;;;;5034122;28;20412;-82
2022/10/05 12:25:55;;;;;;;6.03;3.00;;;;;;;;;;5033801;28;20401;-82
2022/10/05 12:28:31;;;;;;;6.50;2.90;;;;;;;;;;5034214;28;20401;-82
2022/10/05 12:31:02;;;;;;;5.10;2.55;;;;;;;;;;5034465;28;20410;-81
2022/10/05 12:33:38;;;;;;;5.90;2.90;;;;;;;;;;5035317;28;20455;-81
2022/10/05 12:36:08;;;;;;;4.22;2.67;;;;;;;;;;5035127;28;20406;-82
2022/10/05 12:38:34;;;;;;;5.65;2.75;;;;;;;;;;5035273;28;20401;-89
2022/10/05 12:41:13;;;;;;;5.07;2.83;;;;;;;;;;5033945;28;20434;-82
2022/10/05 12:44:15;;;;;;;6.88;2.60;;;;;;;;;;5033778;28;20430;-83
2022/10/05 12:47:01;;;;;;;5.53;2.60;;;;;;;;;;4993660;28;20504;-83
2022/10/05 12:49:42;;;;;;;4.93;2.78;;;;;;;;;;5030047;28;20424;-82
2022/10/05 12:52:16;;;;;;;7.20;2.80;;;;;;;;;;5034842;28;20432;-83
2022/10/05 12:54:49;;;;;;;6.78;2.75;;;;;;;;;;5033948;28;20437;-83
2022/10/05 12:57:34;;;;;;;4.75;2.58;;;;;;;;;;5033539;28;20413;-83
2022/10/05 13:00:06;;;;;;;4.07;2.63;;;;;;;;;;5034065;28;20476;-83
2022/10/05 13:02:41;;;;;;;5.18;2.90;;;;;;;;;;5034529;28;20394;-83
2022/10/05 13:05:09;;;;;;;3.70;2.50;;;;;;;;;;5034721;28;20427;-83
2022/10/05 13:07:45;;;;;;;6.47;2.80;;;;;;;;;;5035047;28;20406;-83
2022/10/05 13:10:23;;;;;;;4.82;2.70;;;;;;;;;;5033865;28;20409;-89
2022/10/05 13:13:08;;;;;;;5.97;2.50;;;;;;;;;;5033850;28;20405;-89
2022/10/05 13:15:51;;;;;;;5.00;2.70;;;;;;;;;;5034844;28;20504;-79
2022/10/05 13:18:17;;;;;;;5.50;2.80;;;;;;;;;;5033415;28;20414;-80
2022/10/05 13:20:53;;;;;;;6.63;3.05;;;;;;;;;;5033373;28;20437;-80
2022/10/05 13:23:24;;;;;;;5.03;2.87;;;;;;;;;;5033412;28;20406;-79
2022/10/05 13:26:02;;;;;;;3.70;2.60;;;;;;;;;;5033034;28;20459;-80
2022/10/05 13:28:36;;;;;;;5.38;2.70;;;;;;;;;;5033264;28;20397;-90
2022/10/05 13:31:05;;;;;;;4.43;2.60;;;;;;;;;;5034380;28;20401;-89
2022/10/05 13:33:38;;;;;;;6.28;2.78;;;;;;;;;;5034331;28;20410;-90
2022/10/05 13:36:09;;;;;;;6.70;2.72;;;;;;;;;;5033252;28;20398;-89
2022/10/05 13:38:47;;;;;;;5.35;2.47;;;;;;;;;;5033144;28;20479;-89
2022/10/05 13:41:17;;;;;;;4.70;2.65;;;;;;;;;;5032827;28;20456;-89
2022/10/05 13:43:49;;;;;;;3.78;2.30;;;;;;;;;;5032694;28;20521;-83
2022/10/05 13:46:21;;;;;;;6.03;2.65;;;;;;;;;;5033004;28;20417;-83
2022/10/05 13:48:53;;;;;;;5.72;2.45;;;;;;;;;;5032545;28;20401;-83
2022/10/05 13:51:23;;;;;;;5.22;2.50;;;;;;;;;;5034162;28;20412;-83
2022/10/05 13:53:52;;;;;;;5.78;2.70;;;;;;;;;;5033764;28;20401;-83
2022/10/05 13:56:44;;;;;;;6.93;2.60;;;;;;;;;;5033840;28;20384;-83
2022/10/05 13:59:49;;;;;;;4.32;2.40;;;;;;;;;;5030670;28;20448;-83
2022/10/05 14:02:36;;;;;;;5.28;2.40;;;;;;;;;;4992475;28;20464;-81
2022/10/05 14:05:14;;;;;;;4.85;2.25;;;;;;;;;;4992286;28;20413;-82
2022/10/05 14:07:54;;;;;;;3.83;2.55;;;;;;;;;;5014813;28;20490;-81
2022/10/05 14:10:39;;;;;;;6.20;2.60;;;;;;;;;;5032681;28;20499;-81
2022/10/05 14:13:17;;;;;;;5.07;2.40;;;;;;;;;;5032959;28;20409;-81
2022/10/05 14:15:55;;;;;;;4.30;2.30;;;;;;;;;;5033191;28;20417;-82
2022/10/05 14:18:23;;;;;;;3.45;2.20;;;;;;;;;;5032915;28;20420;-89
2022/10/05 14:20:58;;;;;;;3.92;2.33;;;;;;;;;;5034466;28;20203;-90
2022/10/05 14:23:26;;;;;;;3.85;2.20;;;;;;;;;;5033204;28;20270;-89
2022/10/05 14:25:55;;;;;;;4.57;2.30;;;;;;;;;;5033149;28;20417;-89
2022/10/05 14:28:22;;;;;;;3.95;2.10;;;;;;;;;;5035719;28;20461;-89
2022/10/05 14:30:59;;;;;;;3.30;2.30;;;;;;;;;;5040427;28;20413;-88
2022/10/05 14:33:35;;;;;;;5.25;2.50;;;;;;;;;;5033895;28;20413;-82
2022/10/05 14:36:01;;;;;;;4.20;2.20;;;;;;;;;;5032287;28;20432;-82
2022/10/05 14:38:28;;;;;;;4.53;2.10;;;;;;;;;;5032458;28;20436;-82
2022/10/05 14:41:05;;;;;;;4.63;2.30;;;;;;;;;;5033005;28;20425;-82
2022/10/05 14:43:32;;;;;;;4.47;2.60;;;;;;;;;;5033123;28;20444;-81
2022/10/05 14:46:03;;;;;;;9.32;2.97;;;;;;;;;;5037193;28;20481;-81
2022/10/05 14:48:37;;;;;;;6.82;2.63;;;;;;;;;;5036360;28;20405;-81
2022/10/05 14:51:09;;;;;;;3.97;2.53;;;;;;;;;;5037730;28;20409;-81
2022/10/05 14:53:42;;;;;;;4.80;2.72;;;;;;;;;;5036286;28;20418;-81
2022/10/05 14:56:15;;;;;;;4.72;2.90;;;;;;;;;;5036171;28;20424;-82
2022/10/05 14:59:00;;;;;;;4.93;2.47;;;;;;;;;;5035955;28;20413;-81
2022/10/05 15:01:26;;;;;;;5.63;2.80;;;;;;;;;;5035788;28;20433;-82
2022/10/05 15:04:10;;;;;;;4.07;2.70;;;;;;;;;;5037169;28;20629;-82
2022/10/05 15:06:42;;;;;;;7.85;3.10;;;;;;;;;;5036815;28;20447;-90
2022/10/05 15:09:08;;;;;;;4.60;2.60;;;;;;;;;;5036918;28;20401;-90
2022/10/05 15:11:49;;;;;;;5.72;2.63;;;;;;;;;;5036948;28;20400;-90
2022/10/05 15:14:25;;;;;;;7.23;2.77;;;;;;;;;;5036901;28;20466;-90
2022/10/05 15:17:01;;;;;;;7.90;2.83;;;;;;;;;;5035804;28;20416;-90